createdAt,value
2018-07-11T00:00:59.230Z,0.00
2018-07-11T00:01:59.288Z,0.00
2018-07-11T00:02:59.348Z,0.00
2018-07-11T00:03:59.409Z,0.00
2018-07-11T00:04:59.468Z,0.00
2018-07-11T00:05:59.528Z,0.00
2018-07-11T00:06:59.587Z,0.00
2018-07-11T00:07:59.647Z,0.00
2018-07-11T00:08:59.708Z,0.00
2018-07-11T00:09:59.766Z,0.00
2018-07-11T00:10:59.826Z,0.00
2018-07-11T00:11:59.887Z,0.00
2018-07-11T00:12:59.945Z,0.00
2018-07-11T00:14:00.007Z,0.00
2018-07-11T00:15:00.125Z,0.00
2018-07-11T00:16:00.125Z,0.00
2018-07-11T00:17:00.186Z,0.00
2018-07-11T00:18:00.243Z,0.00
2018-07-11T00:19:00.304Z,0.00
2018-07-11T00:20:00.363Z,0.00
2018-07-11T00:21:00.423Z,0.00
2018-07-11T00:22:00.483Z,0.00
2018-07-11T00:23:00.546Z,0.00
2018-07-11T00:24:00.602Z,0.00
2018-07-11T00:25:00.662Z,0.00
2018-07-11T00:26:00.720Z,0.00
2018-07-11T00:27:00.781Z,0.00
2018-07-11T00:28:00.840Z,0.00
2018-07-11T00:29:00.899Z,0.00
2018-07-11T00:30:00.961Z,0.00
2018-07-11T00:31:01.022Z,0.00
2018-07-11T00:32:01.082Z,0.00
2018-07-11T00:33:01.139Z,0.00
2018-07-11T00:34:01.197Z,0.00
2018-07-11T00:35:01.257Z,0.00
2018-07-11T00:36:01.319Z,0.00
2018-07-11T00:37:01.391Z,0.00
2018-07-11T00:38:01.436Z,0.00
2018-07-11T00:39:01.495Z,0.00
2018-07-11T00:40:01.555Z,0.00
2018-07-11T00:41:01.616Z,0.00
2018-07-11T00:42:01.674Z,0.00
2018-07-11T00:43:02.309Z,0.00
2018-07-11T00:44:01.793Z,0.00
2018-07-11T00:45:01.854Z,0.00
2018-07-11T00:46:02.403Z,0.00
2018-07-11T00:47:02.643Z,0.00
2018-07-11T00:48:02.048Z,0.00
2018-07-11T00:49:02.658Z,0.00
2018-07-11T00:50:02.150Z,0.00
2018-07-11T00:51:02.214Z,0.00
2018-07-11T00:52:02.270Z,0.00
2018-07-11T00:53:02.330Z,0.00
2018-07-11T00:54:02.389Z,0.00
2018-07-11T00:55:02.448Z,0.00
2018-07-11T00:56:02.507Z,0.00
2018-07-11T00:57:02.568Z,0.00
2018-07-11T00:58:02.625Z,0.00
2018-07-11T00:59:02.685Z,0.00
2018-07-11T01:00:02.746Z,0.00
2018-07-11T01:01:02.806Z,0.00
2018-07-11T01:02:02.864Z,0.00
2018-07-11T01:03:02.924Z,0.00
2018-07-11T01:04:02.986Z,0.00
2018-07-11T01:05:03.043Z,0.00
2018-07-11T01:06:03.102Z,0.00
2018-07-11T01:07:03.163Z,0.00
2018-07-11T01:08:03.471Z,0.00
2018-07-11T01:09:03.281Z,0.00
2018-07-11T01:10:03.340Z,0.00
2018-07-11T01:11:03.422Z,0.00
2018-07-11T01:12:03.462Z,0.00
2018-07-11T01:13:03.519Z,0.00
2018-07-11T01:14:03.578Z,0.00
2018-07-11T01:15:03.639Z,0.00
2018-07-11T01:16:03.697Z,0.00
2018-07-11T01:17:03.758Z,0.00
2018-07-11T01:18:03.818Z,0.00
2018-07-11T01:19:03.876Z,0.00
2018-07-11T01:20:03.936Z,0.00
2018-07-11T01:21:04.017Z,0.00
2018-07-11T01:22:04.056Z,0.00
2018-07-11T01:23:04.114Z,0.00
2018-07-11T01:24:04.192Z,0.00
2018-07-11T01:25:04.234Z,0.00
2018-07-11T01:26:04.301Z,0.00
2018-07-11T01:27:04.378Z,0.00
2018-07-11T01:28:04.413Z,0.00
2018-07-11T01:29:05.037Z,0.00
2018-07-11T01:30:04.539Z,0.00
2018-07-11T01:31:04.611Z,0.00
2018-07-11T01:32:04.983Z,0.00
2018-07-11T01:33:04.753Z,0.00
2018-07-11T01:34:04.802Z,0.00
2018-07-11T01:35:04.831Z,0.00
2018-07-11T01:36:04.888Z,0.00
2018-07-11T01:37:04.947Z,0.00
2018-07-11T01:38:05.006Z,0.00
2018-07-11T01:39:05.072Z,0.00
2018-07-11T01:40:05.157Z,0.00
2018-07-11T01:41:05.212Z,0.00
2018-07-11T01:42:05.582Z,0.00
2018-07-11T01:43:05.615Z,0.00
2018-07-11T01:44:05.425Z,0.00
2018-07-11T01:45:05.464Z,0.00
2018-07-11T01:46:05.480Z,0.00
2018-07-11T01:47:05.541Z,0.00
2018-07-11T01:48:05.599Z,0.00
2018-07-11T01:49:05.658Z,0.00
2018-07-11T01:50:05.718Z,0.00
2018-07-11T01:51:05.777Z,0.00
2018-07-11T01:52:05.837Z,0.00
2018-07-11T01:53:05.895Z,0.00
2018-07-11T01:54:05.955Z,0.00
2018-07-11T01:55:06.014Z,0.00
2018-07-11T01:56:06.072Z,0.00
2018-07-11T01:57:06.132Z,0.00
2018-07-11T01:58:06.190Z,0.00
2018-07-11T01:59:06.250Z,0.00
2018-07-11T02:00:06.309Z,0.00
2018-07-11T02:01:06.369Z,0.00
2018-07-11T02:02:06.426Z,0.00
2018-07-11T02:03:06.485Z,0.00
2018-07-11T02:04:06.547Z,0.00
2018-07-11T02:05:06.606Z,0.00
2018-07-11T02:06:06.663Z,0.00
2018-07-11T02:07:06.736Z,0.00
2018-07-11T02:08:06.781Z,0.00
2018-07-11T02:09:06.841Z,0.00
2018-07-11T02:10:06.899Z,0.00
2018-07-11T02:11:06.958Z,0.00
2018-07-11T02:12:07.017Z,0.00
2018-07-11T02:13:07.080Z,0.00
2018-07-11T02:14:07.136Z,0.00
2018-07-11T02:15:07.195Z,0.00
2018-07-11T02:16:07.254Z,0.00
2018-07-11T02:17:07.313Z,0.00
2018-07-11T02:18:07.371Z,0.00
2018-07-11T02:19:07.431Z,0.00
2018-07-11T02:20:07.489Z,0.00
2018-07-11T02:21:07.549Z,0.00
2018-07-11T02:22:07.607Z,0.00
2018-07-11T02:23:07.665Z,0.00
2018-07-11T02:24:07.725Z,0.00
2018-07-11T02:25:07.786Z,0.00
2018-07-11T02:26:07.842Z,0.00
2018-07-11T02:27:07.901Z,0.00
2018-07-11T02:28:07.961Z,0.00
2018-07-11T02:29:08.020Z,0.00
2018-07-11T02:30:08.078Z,0.00
2018-07-11T02:31:08.137Z,0.00
2018-07-11T02:32:08.197Z,0.00
2018-07-11T02:33:08.254Z,0.00
2018-07-11T02:34:08.312Z,0.00
2018-07-11T02:35:08.371Z,0.00
2018-07-11T02:36:08.431Z,0.00
2018-07-11T02:37:08.488Z,0.00
2018-07-11T02:38:08.547Z,0.00
2018-07-11T02:39:08.608Z,0.00
2018-07-11T02:40:08.673Z,0.00
2018-07-11T02:41:08.723Z,0.00
2018-07-11T02:42:08.780Z,0.00
2018-07-11T02:43:08.840Z,0.00
2018-07-11T02:44:08.900Z,0.00
2018-07-11T02:45:08.960Z,0.00
2018-07-11T02:46:09.016Z,0.00
2018-07-11T02:47:09.074Z,0.00
2018-07-11T02:48:09.151Z,0.00
2018-07-11T02:49:09.192Z,0.00
2018-07-11T02:50:09.253Z,0.00
2018-07-11T02:51:09.319Z,0.00
2018-07-11T02:52:09.378Z,0.00
2018-07-11T02:53:09.481Z,0.00
2018-07-11T02:54:09.484Z,4.00
2018-07-11T02:55:09.541Z,4.00
2018-07-11T02:56:09.602Z,4.00
2018-07-11T02:57:09.659Z,4.00
2018-07-11T02:58:09.722Z,0.00
2018-07-11T02:59:09.777Z,4.00
2018-07-11T03:00:09.836Z,4.00
2018-07-11T03:01:09.895Z,8.00
2018-07-11T03:02:09.951Z,4.00
2018-07-11T03:03:10.012Z,8.00
2018-07-11T03:04:10.069Z,8.00
2018-07-11T03:05:10.129Z,12.00
2018-07-11T03:06:10.185Z,12.00
2018-07-11T03:07:10.245Z,12.00
2018-07-11T03:08:10.303Z,16.00
2018-07-11T03:09:10.361Z,16.00
2018-07-11T03:10:10.419Z,20.00
2018-07-11T03:11:10.477Z,16.00
2018-07-11T03:12:10.787Z,20.00
2018-07-11T03:13:10.596Z,20.00
2018-07-11T03:14:10.654Z,20.00
2018-07-11T03:15:10.714Z,24.00
2018-07-11T03:16:10.772Z,32.00
2018-07-11T03:17:10.829Z,36.00
2018-07-11T03:18:10.905Z,44.00
2018-07-11T03:19:10.946Z,48.00
2018-07-11T03:20:11.004Z,52.00
2018-07-11T03:21:11.063Z,60.00
2018-07-11T03:22:11.121Z,68.00
2018-07-11T03:23:11.179Z,80.00
2018-07-11T03:24:11.238Z,88.00
2018-07-11T03:25:11.298Z,92.00
2018-07-11T03:26:11.354Z,104.00
2018-07-11T03:27:11.422Z,120.00
2018-07-11T03:28:11.471Z,124.00
2018-07-11T03:29:11.530Z,136.00
2018-07-11T03:30:11.588Z,148.00
2018-07-11T03:31:11.648Z,156.00
2018-07-11T03:32:11.705Z,168.00
2018-07-11T03:33:11.919Z,180.00
2018-07-11T03:34:11.824Z,200.00
2018-07-11T03:35:11.884Z,220.00
2018-07-11T03:36:11.941Z,240.00
2018-07-11T03:37:12.003Z,256.00
2018-07-11T03:38:12.057Z,268.00
2018-07-11T03:39:12.115Z,284.00
2018-07-11T03:40:12.174Z,316.00
2018-07-11T03:41:12.234Z,360.00
2018-07-11T03:42:12.291Z,396.00
2018-07-11T03:43:12.349Z,440.00
2018-07-11T03:44:12.408Z,468.00
2018-07-11T03:45:12.468Z,476.00
2018-07-11T03:46:12.544Z,500.00
2018-07-11T03:47:12.584Z,528.00
2018-07-11T03:48:12.643Z,544.00
2018-07-11T03:49:12.700Z,528.00
2018-07-11T03:50:12.760Z,504.00
2018-07-11T03:51:12.833Z,480.00
2018-07-11T03:52:12.879Z,488.00
2018-07-11T03:53:12.947Z,524.00
2018-07-11T03:54:13.019Z,540.00
2018-07-11T03:55:13.051Z,544.00
2018-07-11T03:56:13.121Z,528.00
2018-07-11T03:57:13.174Z,512.00
2018-07-11T03:58:13.244Z,464.00
2018-07-11T03:59:13.286Z,420.00
2018-07-11T04:00:13.344Z,412.00
2018-07-11T04:01:13.434Z,396.00
2018-07-11T04:02:13.462Z,368.00
2018-07-11T04:03:13.519Z,376.00
2018-07-11T04:04:13.578Z,400.00
2018-07-11T04:05:13.637Z,448.00
2018-07-11T04:06:13.695Z,508.00
2018-07-11T04:07:13.754Z,616.00
2018-07-11T04:08:13.812Z,800.00
2018-07-11T04:09:13.872Z,984.00
2018-07-11T04:10:13.928Z,1076.00
2018-07-11T04:11:13.988Z,1112.00
2018-07-11T04:12:14.046Z,1148.00
2018-07-11T04:13:14.105Z,1216.00
2018-07-11T04:14:14.164Z,1212.00
2018-07-11T04:15:14.221Z,1172.00
2018-07-11T04:16:14.280Z,1208.00
2018-07-11T04:17:14.339Z,1272.00
2018-07-11T04:18:14.398Z,1336.00
2018-07-11T04:19:14.532Z,1404.00
2018-07-11T04:20:14.516Z,1452.00
2018-07-11T04:21:14.574Z,1472.00
2018-07-11T04:22:14.631Z,1512.00
2018-07-11T04:23:14.690Z,1584.00
2018-07-11T04:24:14.761Z,1700.00
2018-07-11T04:25:14.807Z,1784.00
2018-07-11T04:26:14.864Z,1764.00
2018-07-11T04:27:14.923Z,1752.00
2018-07-11T04:28:14.981Z,1768.00
2018-07-11T04:29:15.042Z,1844.00
2018-07-11T04:30:15.099Z,1996.00
2018-07-11T04:31:15.158Z,2132.00
2018-07-11T04:32:15.218Z,2236.00
2018-07-11T04:33:15.274Z,2356.00
2018-07-11T04:34:15.333Z,2492.00
2018-07-11T04:35:15.391Z,2552.00
2018-07-11T04:36:15.453Z,2524.00
2018-07-11T04:37:15.509Z,2424.00
2018-07-11T04:38:15.567Z,2328.00
2018-07-11T04:39:15.629Z,2280.00
2018-07-11T04:40:15.685Z,2292.00
2018-07-11T04:41:15.744Z,2384.00
2018-07-11T04:42:15.801Z,2504.00
2018-07-11T04:43:15.861Z,2552.00
2018-07-11T04:44:15.919Z,2484.00
2018-07-11T04:45:15.979Z,2492.00
2018-07-11T04:46:16.036Z,2556.00
2018-07-11T04:47:16.095Z,2580.00
2018-07-11T04:48:16.153Z,2664.00
2018-07-11T04:49:16.212Z,2896.00
2018-07-11T04:50:16.270Z,3264.00
2018-07-11T04:51:16.329Z,3564.00
2018-07-11T04:52:16.388Z,3584.00
2018-07-11T04:53:16.448Z,3464.00
2018-07-11T04:54:16.504Z,3344.00
2018-07-11T04:55:16.563Z,3336.00
2018-07-11T04:56:16.625Z,3484.00
2018-07-11T04:57:16.682Z,3568.00
2018-07-11T04:58:16.742Z,3516.00
2018-07-11T04:59:16.798Z,3476.00
2018-07-11T05:00:16.857Z,3456.00
2018-07-11T05:01:16.924Z,3456.00
2018-07-11T05:02:16.974Z,3512.00
2018-07-11T05:03:17.033Z,3740.00
2018-07-11T05:04:17.125Z,4056.00
2018-07-11T05:05:17.151Z,4220.00
2018-07-11T05:06:17.209Z,4376.00
2018-07-11T05:07:17.277Z,4656.00
2018-07-11T05:08:17.328Z,4916.00
2018-07-11T05:09:17.386Z,5024.00
2018-07-11T05:10:17.445Z,4812.00
2018-07-11T05:11:17.563Z,4400.00
2018-07-11T05:12:17.563Z,4116.00
2018-07-11T05:13:17.623Z,3996.00
2018-07-11T05:14:17.680Z,4044.00
2018-07-11T05:15:17.739Z,4132.00
2018-07-11T05:16:17.838Z,4212.00
2018-07-11T05:17:17.888Z,4244.00
2018-07-11T05:18:17.916Z,4264.00
2018-07-11T05:19:18.010Z,4336.00
2018-07-11T05:20:18.035Z,4480.00
2018-07-11T05:21:18.093Z,4636.00
2018-07-11T05:22:18.153Z,4684.00
2018-07-11T05:23:18.211Z,4600.00
2018-07-11T05:24:18.271Z,4416.00
2018-07-11T05:25:18.330Z,4108.00
2018-07-11T05:26:18.393Z,3748.00
2018-07-11T05:27:18.448Z,3504.00
2018-07-11T05:28:18.510Z,3532.00
2018-07-11T05:29:18.568Z,3856.00
2018-07-11T05:30:18.626Z,4124.00
2018-07-11T05:31:18.685Z,4144.00
2018-07-11T05:32:18.745Z,4108.00
2018-07-11T05:33:18.805Z,4196.00
2018-07-11T05:34:18.863Z,4800.00
2018-07-11T05:35:18.924Z,5844.00
2018-07-11T05:36:19.044Z,6776.00
2018-07-11T05:37:19.042Z,7428.00
2018-07-11T05:38:19.101Z,7760.00
2018-07-11T05:39:19.161Z,7580.00
2018-07-11T05:40:19.220Z,7508.00
2018-07-11T05:41:19.279Z,7420.00
2018-07-11T05:42:19.340Z,7200.00
2018-07-11T05:43:19.400Z,6796.00
2018-07-11T05:44:19.462Z,6228.00
2018-07-11T05:45:19.518Z,5856.00
2018-07-11T05:46:19.577Z,5948.00
2018-07-11T05:47:19.637Z,6468.00
2018-07-11T05:48:19.697Z,7052.00
2018-07-11T05:49:19.757Z,7072.00
2018-07-11T05:50:19.816Z,6660.00
2018-07-11T05:51:19.876Z,6260.00
2018-07-11T05:52:19.936Z,5936.00
2018-07-11T05:53:19.995Z,5704.00
2018-07-11T05:54:20.056Z,5652.00
2018-07-11T05:55:20.115Z,5888.00
2018-07-11T05:56:20.176Z,6284.00
2018-07-11T05:57:20.237Z,6904.00
2018-07-11T05:58:20.294Z,7568.00
2018-07-11T05:59:20.356Z,8016.00
2018-07-11T06:00:20.415Z,8360.00
2018-07-11T06:01:20.475Z,8660.00
2018-07-11T06:02:20.534Z,8908.00
2018-07-11T06:03:20.594Z,8680.00
2018-07-11T06:04:20.655Z,7940.00
2018-07-11T06:05:20.733Z,7708.00
2018-07-11T06:06:20.775Z,8144.00
2018-07-11T06:07:20.835Z,8724.00
2018-07-11T06:08:20.894Z,8892.00
2018-07-11T06:09:20.955Z,8128.00
2018-07-11T06:10:21.013Z,6204.00
2018-07-11T06:11:21.076Z,5416.00
2018-07-11T06:12:21.136Z,5224.00
2018-07-11T06:13:21.246Z,5336.00
2018-07-11T06:14:21.288Z,5496.00
2018-07-11T06:15:21.316Z,5948.00
2018-07-11T06:16:21.396Z,6696.00
2018-07-11T06:17:21.437Z,7572.00
2018-07-11T06:18:21.496Z,8164.00
2018-07-11T06:19:21.557Z,8524.00
2018-07-11T06:20:21.619Z,8860.00
2018-07-11T06:21:21.681Z,9060.00
2018-07-11T06:22:21.756Z,9316.00
2018-07-11T06:23:22.166Z,9760.00
2018-07-11T06:24:21.858Z,10488.00
2018-07-11T06:25:21.933Z,10988.00
2018-07-11T06:26:21.978Z,11296.00
2018-07-11T06:27:22.040Z,11340.00
2018-07-11T06:28:22.100Z,10980.00
2018-07-11T06:29:24.951Z,10464.00
2018-07-11T06:30:22.220Z,9936.00
2018-07-11T06:32:54.867Z,9412.00
2018-07-11T06:33:54.927Z,9784.00
2018-07-11T06:34:54.987Z,10624.00
2018-07-11T06:35:55.049Z,10952.00
2018-07-11T06:37:47.631Z,11184.00
2018-07-11T06:39:30.075Z,10836.00
2018-07-11T06:40:30.522Z,11008.00
2018-07-11T06:41:30.689Z,11544.00
2018-07-11T06:44:00.153Z,11916.00
2018-07-11T06:45:00.212Z,11820.00
2018-07-11T06:46:00.273Z,11916.00
2018-07-11T06:47:00.334Z,11816.00
2018-07-11T06:48:00.489Z,11432.00
2018-07-11T06:49:00.456Z,11288.00
2018-07-11T06:50:00.517Z,11064.00
2018-07-11T06:51:00.580Z,10936.00
2018-07-11T06:52:00.687Z,10988.00
2018-07-11T06:53:00.700Z,10908.00
2018-07-11T06:54:00.762Z,10748.00
2018-07-11T06:55:00.822Z,10764.00
2018-07-11T06:56:00.887Z,11060.00
2018-07-11T06:57:00.945Z,11296.00
2018-07-11T06:58:01.006Z,11752.00
2018-07-11T06:59:01.072Z,12452.00
2018-07-11T07:00:01.131Z,13212.00
2018-07-11T07:01:01.193Z,13848.00
2018-07-11T07:02:01.253Z,13936.00
2018-07-11T07:03:01.315Z,13504.00
2018-07-11T07:04:01.374Z,12948.00
2018-07-11T07:05:01.436Z,12228.00
2018-07-11T07:06:01.502Z,12320.00
2018-07-11T07:07:01.566Z,12400.00
2018-07-11T07:08:01.621Z,13008.00
2018-07-11T07:09:01.684Z,14148.00
2018-07-11T07:10:01.745Z,16020.00
2018-07-11T07:11:01.808Z,17600.00
2018-07-11T07:12:02.199Z,16504.00
2018-07-11T07:13:01.930Z,15248.00
2018-07-11T07:14:01.992Z,13476.00
2018-07-11T07:15:02.054Z,12568.00
2018-07-11T07:16:02.117Z,11984.00
2018-07-11T07:17:02.178Z,11520.00
2018-07-11T07:18:02.241Z,11444.00
2018-07-11T07:19:02.303Z,11816.00
2018-07-11T07:20:02.366Z,12220.00
2018-07-11T07:21:02.429Z,12372.00
2018-07-11T07:22:02.489Z,12188.00
2018-07-11T07:23:02.552Z,11708.00
2018-07-11T07:24:02.618Z,11292.00
2018-07-11T07:25:02.675Z,10948.00
2018-07-11T07:26:02.739Z,10608.00
2018-07-11T07:27:02.802Z,10412.00
2018-07-11T07:28:02.864Z,10464.00
2018-07-11T07:29:02.946Z,11132.00
2018-07-11T07:30:02.988Z,12328.00
2018-07-11T07:31:03.049Z,13660.00
2018-07-11T07:32:03.111Z,14620.00
2018-07-11T07:33:03.172Z,14964.00
2018-07-11T07:34:03.238Z,15012.00
2018-07-11T07:35:03.298Z,14652.00
2018-07-11T07:36:03.359Z,14224.00
2018-07-11T07:37:03.427Z,14184.00
2018-07-11T07:38:03.485Z,14164.00
2018-07-11T07:39:03.546Z,13760.00
2018-07-11T07:40:03.606Z,13580.00
2018-07-11T07:41:03.669Z,14048.00
2018-07-11T07:42:03.732Z,14396.00
2018-07-11T07:43:03.795Z,14764.00
2018-07-11T07:44:03.854Z,15636.00
2018-07-11T07:45:03.921Z,16564.00
2018-07-11T07:46:03.979Z,16464.00
2018-07-11T07:47:04.052Z,15092.00
2018-07-11T07:48:04.103Z,13504.00
2018-07-11T07:49:04.166Z,12960.00
2018-07-11T07:50:04.228Z,13436.00
2018-07-11T07:51:04.291Z,13616.00
2018-07-11T07:52:04.352Z,14956.00
2018-07-11T07:53:04.415Z,16864.00
2018-07-11T07:54:04.478Z,18208.00
2018-07-11T07:55:04.539Z,18944.00
2018-07-11T07:56:04.601Z,19456.00
2018-07-11T07:57:04.664Z,18624.00
2018-07-11T07:58:04.745Z,16008.00
2018-07-11T07:59:04.789Z,14532.00
2018-07-11T08:00:04.850Z,13876.00
2018-07-11T08:01:04.913Z,13800.00
2018-07-11T08:02:04.976Z,13556.00
2018-07-11T08:03:05.038Z,13084.00
2018-07-11T08:04:05.100Z,13040.00
2018-07-11T08:05:05.162Z,12768.00
2018-07-11T08:06:05.225Z,11828.00
2018-07-11T08:07:05.370Z,11256.00
2018-07-11T08:08:05.349Z,12044.00
2018-07-11T08:09:05.411Z,13668.00
2018-07-11T08:10:05.480Z,15448.00
2018-07-11T08:11:05.537Z,16732.00
2018-07-11T08:12:05.599Z,17568.00
2018-07-11T08:13:05.661Z,17504.00
2018-07-11T08:14:05.724Z,16192.00
2018-07-11T08:15:05.787Z,14804.00
2018-07-11T08:16:05.848Z,13836.00
2018-07-11T08:17:05.911Z,13316.00
2018-07-11T08:18:05.975Z,13636.00
2018-07-11T08:19:06.037Z,14728.00
2018-07-11T08:20:06.099Z,16000.00
2018-07-11T08:21:06.162Z,16788.00
2018-07-11T08:22:06.226Z,16832.00
2018-07-11T08:23:06.908Z,16192.00
2018-07-11T08:24:06.350Z,15212.00
2018-07-11T08:25:06.412Z,14284.00
2018-07-11T08:26:06.475Z,13744.00
2018-07-11T08:27:06.600Z,13924.00
2018-07-11T08:28:06.599Z,14632.00
2018-07-11T08:29:06.662Z,15336.00
2018-07-11T08:30:06.725Z,15580.00
2018-07-11T08:31:06.788Z,15568.00
2018-07-11T08:32:06.850Z,15984.00
2018-07-11T08:33:06.914Z,16656.00
2018-07-11T08:34:06.976Z,17600.00
2018-07-11T08:35:07.070Z,18176.00
2018-07-11T08:36:07.102Z,17856.00
2018-07-11T08:37:07.163Z,16628.00
2018-07-11T08:38:07.226Z,15660.00
2018-07-11T08:39:07.294Z,15804.00
2018-07-11T08:40:07.351Z,16620.00
2018-07-11T08:41:07.414Z,17920.00
2018-07-11T08:42:07.496Z,18976.00
2018-07-11T08:43:07.540Z,15448.00
2018-07-11T08:44:07.604Z,15156.00
2018-07-11T08:45:07.665Z,17120.00
2018-07-11T08:46:07.729Z,19232.00
2018-07-11T08:47:07.792Z,20800.00
2018-07-11T08:48:07.873Z,23840.00
2018-07-11T08:49:08.167Z,23328.00
2018-07-11T08:50:07.979Z,20736.00
2018-07-11T08:51:08.061Z,20448.00
2018-07-11T08:52:08.118Z,21088.00
2018-07-11T08:53:08.169Z,22112.00
2018-07-11T08:54:08.232Z,21760.00
2018-07-11T08:55:08.926Z,21504.00
2018-07-11T08:56:08.387Z,21568.00
2018-07-11T08:57:08.771Z,20064.00
2018-07-11T08:58:08.486Z,16732.00
2018-07-11T08:59:08.550Z,15676.00
2018-07-11T09:00:08.611Z,17076.00
2018-07-11T09:01:08.675Z,19648.00
2018-07-11T09:02:08.739Z,19104.00
2018-07-11T09:03:08.803Z,17696.00
2018-07-11T09:04:08.867Z,17312.00
2018-07-11T09:05:08.933Z,15656.00
2018-07-11T09:06:08.992Z,15024.00
2018-07-11T09:07:09.060Z,16736.00
2018-07-11T09:08:09.124Z,18720.00
2018-07-11T09:09:09.183Z,19008.00
2018-07-11T09:10:09.247Z,18592.00
2018-07-11T09:11:09.310Z,17568.00
2018-07-11T09:12:09.373Z,17536.00
2018-07-11T09:13:09.437Z,18112.00
2018-07-11T09:14:09.499Z,18560.00
2018-07-11T09:15:09.565Z,18784.00
2018-07-11T09:16:09.626Z,17888.00
2018-07-11T09:17:09.690Z,16096.00
2018-07-11T09:18:09.758Z,15132.00
2018-07-11T09:19:09.822Z,15388.00
2018-07-11T09:20:09.881Z,16348.00
2018-07-11T09:21:09.944Z,17600.00
2018-07-11T09:22:10.009Z,18880.00
2018-07-11T09:23:10.089Z,18560.00
2018-07-11T09:24:10.240Z,15512.00
2018-07-11T09:25:10.449Z,12280.00
2018-07-11T09:26:10.263Z,11868.00
2018-07-11T09:27:10.327Z,10272.00
2018-07-11T09:28:10.390Z,11376.00
2018-07-11T09:29:10.453Z,12556.00
2018-07-11T09:30:10.515Z,14032.00
2018-07-11T09:31:10.579Z,15984.00
2018-07-11T09:32:10.642Z,17732.00
2018-07-11T09:33:10.705Z,17412.00
2018-07-11T09:34:10.770Z,17172.00
2018-07-11T09:35:10.834Z,17416.00
2018-07-11T09:36:10.902Z,18112.00
2018-07-11T09:37:10.959Z,18080.00
2018-07-11T09:38:11.023Z,16836.00
2018-07-11T09:39:11.089Z,18880.00
2018-07-11T09:40:11.149Z,19712.00
2018-07-11T09:41:11.214Z,19744.00
2018-07-11T09:42:11.277Z,20544.00
2018-07-11T09:43:11.341Z,23136.00
2018-07-11T09:44:11.404Z,25888.00
2018-07-11T09:45:11.469Z,24096.00
2018-07-11T09:46:11.534Z,18976.00
2018-07-11T09:47:11.597Z,17300.00
2018-07-11T09:48:11.660Z,18464.00
2018-07-11T09:49:11.724Z,18624.00
2018-07-11T09:50:11.791Z,17468.00
2018-07-11T09:51:11.857Z,17200.00
2018-07-11T09:52:11.940Z,16284.00
2018-07-11T09:53:11.982Z,17204.00
2018-07-11T09:54:12.045Z,17440.00
2018-07-11T09:55:12.111Z,18480.00
2018-07-11T09:56:12.174Z,19648.00
2018-07-11T09:57:12.239Z,19264.00
2018-07-11T09:58:12.304Z,18316.00
2018-07-11T09:59:12.370Z,17336.00
2018-07-11T10:00:12.432Z,17144.00
2018-07-11T10:01:12.495Z,17380.00
2018-07-11T10:02:12.561Z,17272.00
2018-07-11T10:03:12.624Z,17320.00
2018-07-11T10:04:12.687Z,18060.00
2018-07-11T10:05:12.812Z,18944.00
2018-07-11T10:06:12.817Z,19808.00
2018-07-11T10:07:12.884Z,21376.00
2018-07-11T10:08:12.949Z,23648.00
2018-07-11T10:09:13.013Z,24864.00
2018-07-11T10:10:13.077Z,23008.00
2018-07-11T10:11:13.142Z,42560.00
2018-07-11T10:12:13.207Z,65952.00
2018-07-11T10:13:13.275Z,82080.00
2018-07-11T10:14:13.341Z,87712.00
2018-07-11T10:15:13.407Z,84384.00
2018-07-11T10:16:13.474Z,75584.00
2018-07-11T10:17:13.542Z,55072.00
2018-07-11T10:18:13.609Z,29376.00
2018-07-11T10:19:13.679Z,17780.00
2018-07-11T10:20:13.748Z,16300.00
2018-07-11T10:21:13.813Z,18400.00
2018-07-11T10:22:13.884Z,22016.00
2018-07-11T10:23:13.948Z,78752.00
2018-07-11T10:24:14.015Z,82016.00
2018-07-11T10:25:14.082Z,81248.00
2018-07-11T10:26:14.151Z,81696.00
2018-07-11T10:27:14.222Z,82624.00
2018-07-11T10:28:14.289Z,83168.00
2018-07-11T10:29:14.355Z,82176.00
2018-07-11T10:30:14.424Z,85568.00
2018-07-11T10:31:14.495Z,82784.00
2018-07-11T10:32:14.561Z,83424.00
2018-07-11T10:33:14.631Z,81824.00
2018-07-11T10:34:14.701Z,80160.00
2018-07-11T10:35:14.771Z,80384.00
2018-07-11T10:36:14.842Z,80352.00
2018-07-11T10:37:14.910Z,81280.00
2018-07-11T10:38:14.981Z,82208.00
2018-07-11T10:39:15.054Z,82240.00
2018-07-11T10:40:15.124Z,83232.00
2018-07-11T10:41:15.195Z,85952.00
2018-07-11T10:42:15.267Z,86304.00
2018-07-11T10:43:15.337Z,87328.00
2018-07-11T10:44:15.408Z,86624.00
2018-07-11T10:45:15.480Z,85824.00
2018-07-11T10:46:15.552Z,70656.00
2018-07-11T10:47:15.626Z,22720.00
2018-07-11T10:48:15.696Z,77984.00
2018-07-11T10:49:15.770Z,80352.00
2018-07-11T10:50:15.842Z,77856.00
2018-07-11T10:51:15.917Z,79808.00
2018-07-11T10:52:15.988Z,45568.00
2018-07-11T10:53:16.059Z,77952.00
2018-07-11T10:54:16.136Z,77312.00
2018-07-11T10:55:16.205Z,75616.00
2018-07-11T10:56:16.277Z,73664.00
2018-07-11T10:57:16.350Z,72672.00
2018-07-11T10:58:16.422Z,71776.00
2018-07-11T10:59:16.494Z,73952.00
2018-07-11T11:00:35.968Z,73312.00
2018-07-11T11:01:16.707Z,72064.00
2018-07-11T11:02:16.712Z,71712.00
2018-07-11T11:03:17.380Z,71104.00
2018-07-11T11:04:16.857Z,70912.00
2018-07-11T11:05:16.930Z,70816.00
2018-07-11T11:06:17.009Z,68640.00
2018-07-11T11:07:17.078Z,69504.00
2018-07-11T11:08:17.148Z,70240.00
2018-07-11T11:09:17.222Z,70912.00
2018-07-11T11:10:17.299Z,71712.00
2018-07-11T11:11:17.370Z,72512.00
2018-07-11T11:12:17.442Z,71360.00
2018-07-11T11:13:17.515Z,68960.00
2018-07-11T11:14:17.588Z,65888.00
2018-07-11T11:15:17.662Z,68768.00
2018-07-11T11:16:17.738Z,69152.00
2018-07-11T11:17:17.807Z,54272.00
2018-07-11T11:18:17.882Z,63648.00
2018-07-11T11:19:17.955Z,33472.00
2018-07-11T11:20:18.029Z,15740.00
2018-07-11T11:21:18.101Z,14568.00
2018-07-11T11:22:18.175Z,15356.00
2018-07-11T11:23:18.248Z,16992.00
2018-07-11T11:24:18.321Z,59520.00
2018-07-11T11:25:18.394Z,49952.00
2018-07-11T11:26:18.465Z,58496.00
2018-07-11T11:27:18.541Z,54720.00
2018-07-11T11:28:18.609Z,55712.00
2018-07-11T11:29:18.681Z,22368.00
2018-07-11T11:30:18.752Z,24000.00
2018-07-11T11:31:18.824Z,65920.00
2018-07-11T11:32:18.896Z,56896.00
2018-07-11T11:33:18.968Z,62048.00
2018-07-11T11:34:19.039Z,62208.00
2018-07-11T11:35:19.112Z,56416.00
2018-07-11T11:36:19.187Z,19136.00
2018-07-11T11:37:19.256Z,15792.00
2018-07-11T11:38:19.327Z,14896.00
2018-07-11T11:39:19.399Z,14244.00
2018-07-11T11:40:19.471Z,12644.00
2018-07-11T11:41:19.543Z,11368.00
2018-07-11T11:42:20.053Z,10780.00
2018-07-11T11:43:19.686Z,9864.00
2018-07-11T11:44:19.761Z,8780.00
2018-07-11T11:45:19.827Z,8252.00
2018-07-11T11:46:19.897Z,7636.00
2018-07-11T11:47:19.968Z,7180.00
2018-07-11T11:48:20.038Z,6912.00
2018-07-11T11:49:20.106Z,7004.00
2018-07-11T11:50:20.427Z,7296.00
2018-07-11T11:51:20.246Z,7784.00
2018-07-11T11:52:20.314Z,8536.00
2018-07-11T11:53:20.382Z,9520.00
2018-07-11T11:54:20.450Z,10764.00
2018-07-11T11:55:20.522Z,12088.00
2018-07-11T11:56:20.837Z,13728.00
2018-07-11T11:57:20.655Z,15864.00
2018-07-11T11:58:20.722Z,18432.00
2018-07-11T11:59:20.790Z,21376.00
2018-07-11T12:00:20.856Z,59744.00
2018-07-11T12:01:20.924Z,64512.00
2018-07-11T12:02:20.993Z,68896.00
2018-07-11T12:03:21.060Z,31872.00
2018-07-11T12:04:21.126Z,49056.00
2018-07-11T12:05:21.196Z,27296.00
2018-07-11T12:06:21.263Z,17048.00
2018-07-11T12:07:21.331Z,14424.00
2018-07-11T12:08:21.401Z,12436.00
2018-07-11T12:09:21.467Z,10816.00
2018-07-11T12:10:21.539Z,9408.00
2018-07-11T12:11:21.608Z,8308.00
2018-07-11T12:12:21.668Z,7588.00
2018-07-11T12:13:21.737Z,7180.00
2018-07-11T12:14:21.804Z,6996.00
2018-07-11T12:15:21.872Z,7112.00
2018-07-11T12:16:21.939Z,7368.00
2018-07-11T12:17:22.006Z,7860.00
2018-07-11T12:18:22.074Z,8928.00
2018-07-11T12:19:22.142Z,10656.00
2018-07-11T12:20:22.206Z,13004.00
2018-07-11T12:21:22.279Z,14712.00